createdAt,value
2022-09-27T00:01:17.338Z,99603.66
2022-09-27T00:03:46.354Z,99608.38
2022-09-27T00:06:17.981Z,99613.75
2022-09-27T00:08:46.341Z,99606.06
2022-09-27T00:11:22.422Z,99603.59
2022-09-27T00:13:50.809Z,99606.41
2022-09-27T00:16:19.241Z,99617.31
2022-09-27T00:18:47.591Z,99616.41
2022-09-27T00:21:17.424Z,99614.53
2022-09-27T00:23:45.769Z,99614.38
2022-09-27T00:26:15.188Z,99609.38
2022-09-27T00:28:43.858Z,99611.22
2022-09-27T00:31:21.202Z,99604.81
2022-09-27T00:33:50.851Z,99605.84
2022-09-27T00:36:22.530Z,99609.56
2022-09-27T00:38:51.617Z,99603.53
2022-09-27T00:41:22.506Z,99609.13
2022-09-27T00:43:52.485Z,99614.50
2022-09-27T00:46:28.133Z,99619.00
2022-09-27T00:49:06.690Z,99622.91
2022-09-27T00:51:40.519Z,99609.66
2022-09-27T00:54:11.954Z,99613.75
2022-09-27T00:56:41.504Z,99623.66
2022-09-27T00:59:15.301Z,99623.88
2022-09-27T01:01:44.523Z,99619.50
2022-09-27T01:04:15.334Z,99618.84
2022-09-27T01:06:45.278Z,99621.72
2022-09-27T01:09:14.208Z,99625.44
2022-09-27T01:11:47.112Z,99631.00
2022-09-27T01:14:30.312Z,99625.78
2022-09-27T01:17:08.482Z,99626.00
2022-09-27T01:19:58.165Z,99626.16
2022-09-27T01:22:32.065Z,99622.03
2022-09-27T01:25:12.875Z,99628.38
2022-09-27T01:28:03.530Z,99624.03
2022-09-27T01:30:43.574Z,99630.44
2022-09-27T01:33:21.353Z,99629.31
2022-09-27T01:36:03.270Z,99620.19
2022-09-27T01:38:42.052Z,99613.31
2022-09-27T01:41:25.352Z,99614.97
2022-09-27T01:44:22.609Z,99616.00
2022-09-27T01:46:59.943Z,99613.47
2022-09-27T01:49:47.301Z,99617.03
2022-09-27T01:52:21.693Z,99609.97
2022-09-27T01:54:56.069Z,99609.34
2022-09-27T01:57:27.663Z,99607.59
2022-09-27T02:00:02.904Z,99606.09
2022-09-27T02:02:49.474Z,99602.22
2022-09-27T02:05:43.229Z,99605.91
2022-09-27T02:08:36.368Z,99612.09
2022-09-27T02:11:13.368Z,99596.66
2022-09-27T02:13:51.024Z,99603.66
2022-09-27T02:16:52.194Z,99605.53
2022-09-27T02:19:35.348Z,99614.97
2022-09-27T02:22:16.348Z,99606.66
2022-09-27T02:24:49.984Z,99612.66
2022-09-27T02:27:23.020Z,99611.25
2022-09-27T02:29:58.850Z,99606.72
2022-09-27T02:32:27.546Z,99603.22
2022-09-27T02:35:02.165Z,99610.06
2022-09-27T02:37:31.830Z,99598.50
2022-09-27T02:40:00.851Z,99609.69
2022-09-27T02:42:29.951Z,99612.84
2022-09-27T02:44:58.968Z,99616.16
2022-09-27T02:47:39.662Z,99618.03
2022-09-27T02:50:27.714Z,99619.25
2022-09-27T02:53:38.198Z,99618.38
2022-09-27T02:56:32.790Z,99626.44
2022-09-27T02:59:50.928Z,99629.31
2022-09-27T03:02:37.368Z,99628.41
2022-09-27T03:05:34.361Z,99634.59
2022-09-27T03:08:04.858Z,99624.69
2022-09-27T03:10:34.568Z,99630.88
2022-09-27T03:13:03.913Z,99642.84
2022-09-27T03:15:32.675Z,99648.22
2022-09-27T03:18:04.805Z,99634.31
2022-09-27T03:20:43.797Z,99629.03
2022-09-27T03:23:13.923Z,99636.94
2022-09-27T03:25:43.160Z,99633.63
2022-09-27T03:28:13.960Z,99637.13
2022-09-27T03:30:44.019Z,99633.09
2022-09-27T03:33:14.370Z,99637.47
2022-09-27T03:35:49.978Z,99636.81
2022-09-27T03:38:18.584Z,99636.84
2022-09-27T03:40:47.138Z,99636.56
2022-09-27T03:43:16.083Z,99641.44
2022-09-27T03:45:48.472Z,99638.13
2022-09-27T03:48:18.952Z,99639.31
2022-09-27T03:50:47.491Z,99635.81
2022-09-27T03:53:17.176Z,99641.06
2022-09-27T03:55:48.105Z,99636.53
2022-09-27T03:58:16.450Z,99635.97
2022-09-27T04:00:47.459Z,99636.44
2022-09-27T04:03:17.700Z,99643.97
2022-09-27T04:06:06.557Z,99641.09
2022-09-27T04:08:41.170Z,99652.53
2022-09-27T04:11:09.736Z,99652.88
2022-09-27T04:13:39.745Z,99653.09
2022-09-27T04:16:09.103Z,99648.38
2022-09-27T04:19:12.669Z,99647.53
2022-09-27T04:22:06.935Z,99646.88
2022-09-27T04:24:36.710Z,99652.38
2022-09-27T04:27:31.487Z,99649.13
2022-09-27T04:30:00.025Z,99656.00
2022-09-27T04:33:07.055Z,99655.53
2022-09-27T04:35:59.039Z,99658.22
2022-09-27T04:38:28.582Z,99660.06
2022-09-27T04:41:02.327Z,99657.38
2022-09-27T04:43:34.959Z,99656.34
2022-09-27T04:46:04.944Z,99655.53
2022-09-27T04:48:34.651Z,99657.84
2022-09-27T04:51:04.020Z,99651.09
2022-09-27T04:53:33.110Z,99659.25
2022-09-27T04:56:06.250Z,99667.16
2022-09-27T04:58:36.292Z,99670.13
2022-09-27T05:01:05.437Z,99665.25
2022-09-27T05:04:08.850Z,99666.34
2022-09-27T05:06:40.549Z,99673.47
2022-09-27T05:09:19.220Z,99669.88
2022-09-27T05:11:54.117Z,99653.03
2022-09-27T05:17:16.031Z,99653.22
2022-09-27T05:20:11.438Z,99656.16
2022-09-27T05:22:50.447Z,99655.25
2022-09-27T05:25:18.838Z,99650.78
2022-09-27T05:27:49.268Z,99650.03
2022-09-27T05:30:18.085Z,99652.81
2022-09-27T05:32:50.408Z,99647.72
2022-09-27T05:35:28.301Z,99646.13
2022-09-27T05:38:00.910Z,99650.94
2022-09-27T05:40:41.740Z,99646.47
2022-09-27T05:43:13.643Z,99639.31
2022-09-27T05:45:43.207Z,99642.28
2022-09-27T05:48:14.316Z,99650.41
2022-09-27T05:50:53.620Z,99645.75
2022-09-27T05:53:22.129Z,99643.34
2022-09-27T05:55:50.574Z,99645.06
2022-09-27T05:58:23.451Z,99652.16
2022-09-27T06:01:00.111Z,99638.78
2022-09-27T06:03:51.818Z,99643.19
2022-09-27T06:06:43.127Z,99632.50
2022-09-27T06:09:12.916Z,99629.66
2022-09-27T06:11:44.434Z,99626.38
2022-09-27T06:14:17.072Z,99633.50
2022-09-27T06:17:06.416Z,99634.38
2022-09-27T06:19:37.107Z,99633.41
2022-09-27T06:22:05.791Z,99632.44
2022-09-27T06:24:51.439Z,99628.53
2022-09-27T06:27:27.009Z,99624.66
2022-09-27T06:30:20.329Z,99625.97
2022-09-27T06:32:59.131Z,99627.50
2022-09-27T06:35:33.146Z,99624.00
2022-09-27T06:38:05.006Z,99625.53
2022-09-27T06:40:34.060Z,99618.72
2022-09-27T06:43:28.466Z,99624.13
2022-09-27T06:46:38.132Z,99613.41
2022-09-27T06:49:54.352Z,99619.03
2022-09-27T06:52:22.747Z,99624.72
2022-09-27T06:54:51.153Z,99629.50
2022-09-27T06:57:40.247Z,99619.94
2022-09-27T07:00:24.918Z,99621.19
2022-09-27T07:03:14.340Z,99623.69
2022-09-27T07:06:03.323Z,99622.41
2022-09-27T07:08:46.927Z,99616.09
2022-09-27T07:11:15.628Z,99611.03
2022-09-27T07:13:44.111Z,99610.19
2022-09-27T07:16:13.595Z,99620.94
2022-09-27T07:18:44.805Z,99616.47
2022-09-27T07:21:13.783Z,99610.91
2022-09-27T07:23:42.217Z,99611.66
2022-09-27T07:26:13.494Z,99610.75
2022-09-27T07:28:42.362Z,99613.66
2022-09-27T07:31:15.092Z,99609.75
2022-09-27T07:33:44.940Z,99610.19
2022-09-27T07:36:15.117Z,99602.34
2022-09-27T07:38:46.101Z,99603.94
2022-09-27T07:41:17.185Z,99601.06
2022-09-27T07:43:46.899Z,99601.34
2022-09-27T07:46:16.695Z,99599.50
2022-09-27T07:48:54.252Z,99605.78
2022-09-27T07:51:35.117Z,99600.50
2022-09-27T07:54:09.689Z,99595.03
2022-09-27T07:56:38.127Z,99596.44
2022-09-27T07:59:08.666Z,99598.03
2022-09-27T08:01:37.246Z,99597.88
2022-09-27T08:04:07.250Z,99585.03
2022-09-27T08:06:35.729Z,99587.97
2022-09-27T08:09:07.453Z,99587.34
2022-09-27T08:11:37.441Z,99587.19
2022-09-27T08:14:06.543Z,99587.66
2022-09-27T08:16:36.371Z,99576.13
2022-09-27T08:19:26.478Z,99582.56
2022-09-27T08:22:15.302Z,99578.53
2022-09-27T08:24:55.882Z,99579.84
2022-09-27T08:27:47.670Z,99586.31
2022-09-27T08:30:27.022Z,99583.81
2022-09-27T08:32:58.701Z,99582.66
2022-09-27T08:35:29.555Z,99588.50
2022-09-27T08:37:59.194Z,99585.69
2022-09-27T08:40:39.096Z,99588.22
2022-09-27T08:43:16.123Z,99584.88
2022-09-27T08:45:58.344Z,99586.53
2022-09-27T08:48:30.241Z,99585.09
2022-09-27T08:51:02.889Z,99587.84
2022-09-27T08:53:38.111Z,99583.16
2022-09-27T08:56:09.527Z,99585.44
2022-09-27T08:58:49.533Z,99584.13
2022-09-27T09:01:28.525Z,99585.09
2022-09-27T09:04:31.373Z,99589.97
2022-09-27T09:07:14.023Z,99587.66
2022-09-27T09:09:51.270Z,99592.53
2022-09-27T09:12:50.266Z,99587.81
2022-09-27T09:15:56.542Z,99586.41
2022-09-27T09:18:41.778Z,99583.09
2022-09-27T09:21:23.548Z,99580.63
2022-09-27T09:24:13.289Z,99587.09
2022-09-27T09:26:51.415Z,99577.78
2022-09-27T09:29:33.241Z,99583.41
2022-09-27T09:32:12.925Z,99583.91
2022-09-27T09:34:47.181Z,99585.50
2022-09-27T09:37:22.546Z,99577.84
2022-09-27T09:40:00.043Z,99586.13
2022-09-27T09:42:35.912Z,99585.63
2022-09-27T09:45:07.189Z,99581.31
2022-09-27T09:47:42.142Z,99585.31
2022-09-27T09:50:19.517Z,99591.31
2022-09-27T09:52:51.856Z,99584.63
2022-09-27T09:55:25.340Z,99577.25
2022-09-27T09:58:10.241Z,99573.97
2022-09-27T10:00:46.875Z,99577.16
2022-09-27T10:03:15.357Z,99573.03
2022-09-27T10:05:45.778Z,99562.63
2022-09-27T10:08:20.173Z,99583.44
2022-09-27T10:10:54.395Z,99570.91
2022-09-27T10:13:42.175Z,99569.81
2022-09-27T10:16:14.309Z,99575.44
2022-09-27T10:18:49.102Z,99562.34
2022-09-27T10:21:23.058Z,99560.78
2022-09-27T10:24:10.425Z,99560.41
2022-09-27T10:27:02.802Z,99563.94
2022-09-27T10:29:38.046Z,99564.16
2022-09-27T10:32:24.792Z,99566.81
2022-09-27T10:35:38.308Z,99566.06
2022-09-27T10:38:28.545Z,99556.72
2022-09-27T10:41:24.381Z,99561.75
2022-09-27T10:43:59.880Z,99544.59
2022-09-27T10:46:35.314Z,99553.44
2022-09-27T10:49:28.218Z,99546.31
2022-09-27T10:52:01.785Z,99552.34
2022-09-27T10:54:32.555Z,99545.66
2022-09-27T10:57:05.512Z,99553.41
2022-09-27T10:59:40.668Z,99543.06
2022-09-27T11:02:22.441Z,99541.03
2022-09-27T11:05:11.282Z,99531.16
2022-09-27T11:07:50.556Z,99532.69
2022-09-27T11:10:29.489Z,99526.66
2022-09-27T11:13:15.670Z,99524.41
2022-09-27T11:16:19.083Z,99529.78
2022-09-27T11:18:53.996Z,99520.47
2022-09-27T11:21:35.182Z,99529.25
2022-09-27T11:24:27.184Z,99519.56
2022-09-27T11:27:06.596Z,99516.66
2022-09-27T11:29:46.578Z,99504.22
2022-09-27T11:33:07.996Z,99494.31
2022-09-27T11:35:57.049Z,99494.06
2022-09-27T11:38:51.615Z,99493.16
2022-09-27T11:41:40.280Z,99493.63
2022-09-27T11:44:36.066Z,99491.06
2022-09-27T11:47:17.367Z,99481.69
2022-09-27T11:50:27.386Z,99475.56
2022-09-27T11:53:10.782Z,99472.47
2022-09-27T11:55:52.213Z,99460.91
2022-09-27T11:58:31.500Z,99470.25
2022-09-27T12:01:21.653Z,99476.78
2022-09-27T12:04:31.944Z,99480.75
2022-09-27T12:07:11.816Z,99484.84
2022-09-27T12:09:44.726Z,99477.88
2022-09-27T12:12:19.103Z,99479.81
2022-09-27T12:14:52.078Z,99475.44
2022-09-27T12:17:25.615Z,99473.59
2022-09-27T12:19:58.471Z,99465.84
2022-09-27T12:22:58.642Z,99463.63
2022-09-27T12:25:42.362Z,99465.16
2022-09-27T12:28:27.382Z,99458.22
2022-09-27T12:31:27.851Z,99462.94
2022-09-27T12:34:06.202Z,99459.66
2022-09-27T12:36:38.985Z,99458.41
2022-09-27T12:39:18.860Z,99465.88
2022-09-27T12:42:01.410Z,99465.63
2022-09-27T12:44:45.906Z,99467.81
2022-09-27T12:47:33.774Z,99460.06
2022-09-27T12:50:12.993Z,99461.31
2022-09-27T12:52:46.572Z,99457.09
2022-09-27T12:55:45.334Z,99458.84
2022-09-27T12:58:33.905Z,99462.53
2022-09-27T13:01:14.024Z,99452.25
2022-09-27T13:03:58.358Z,99457.78
2022-09-27T13:06:57.093Z,99457.34
2022-09-27T13:09:56.848Z,99462.88
2022-09-27T13:12:29.469Z,99459.34
2022-09-27T13:15:02.151Z,99459.72
2022-09-27T13:17:56.475Z,99455.47
2022-09-27T13:20:49.516Z,99458.53
2022-09-27T13:24:01.128Z,99455.06
2022-09-27T13:26:48.849Z,99449.69
2022-09-27T13:29:34.030Z,99449.28
2022-09-27T13:32:22.694Z,99445.25
2022-09-27T13:35:21.755Z,99445.59
2022-09-27T13:38:23.775Z,99455.88
2022-09-27T13:40:54.481Z,99454.31
2022-09-27T13:50:25.256Z,99448.09
2022-09-27T14:05:54.891Z,99445.13
2022-09-27T14:08:30.557Z,99435.59
2022-09-27T14:11:00.696Z,99437.53
2022-09-27T14:13:32.382Z,99429.38
2022-09-27T14:16:07.697Z,99434.47
2022-09-27T14:18:48.179Z,99438.13
2022-09-27T14:21:28.484Z,99434.25
2022-09-27T14:24:29.735Z,99442.63
2022-09-27T14:27:15.960Z,99440.16
2022-09-27T14:29:48.392Z,99440.28
2022-09-27T14:32:23.572Z,99432.53
2022-09-27T14:35:28.650Z,99434.00
2022-09-27T14:37:58.351Z,99431.72
2022-09-27T14:40:28.938Z,99435.75
2022-09-27T14:43:00.278Z,99429.47
2022-09-27T14:45:35.128Z,99429.72
2022-09-27T14:48:04.794Z,99432.78
2022-09-27T14:50:33.493Z,99423.94
2022-09-27T14:53:05.271Z,99430.44
2022-09-27T14:55:35.038Z,99426.88
2022-09-27T14:58:04.883Z,99424.50
2022-09-27T15:00:36.476Z,99419.06
2022-09-27T15:03:09.321Z,99416.59
2022-09-27T15:05:43.016Z,99420.38
2022-09-27T15:08:15.801Z,99421.56
2022-09-27T15:10:45.872Z,99418.13
2022-09-27T15:13:17.675Z,99425.22
2022-09-27T15:15:47.538Z,99414.34
2022-09-27T15:18:34.512Z,99417.78
2022-09-27T15:21:08.505Z,99412.00
2022-09-27T15:23:40.749Z,99404.06
2022-09-27T15:26:14.609Z,99406.16
2022-09-27T15:28:45.832Z,99414.66
2022-09-27T15:31:15.481Z,99408.41
2022-09-27T15:33:54.407Z,99397.19
2022-09-27T15:36:55.799Z,99405.69
2022-09-27T15:39:32.476Z,99402.78
2022-09-27T15:42:09.809Z,99390.50
2022-09-27T15:44:45.162Z,99387.16
2022-09-27T15:47:51.947Z,99394.03
2022-09-27T15:50:37.311Z,99393.66
2022-09-27T15:53:07.166Z,99391.19
2022-09-27T15:55:42.251Z,99385.78
2022-09-27T15:58:17.075Z,99382.22
2022-09-27T16:00:56.107Z,99382.69
2022-09-27T16:03:25.580Z,99381.63
2022-09-27T16:05:56.435Z,99382.69
2022-09-27T16:08:25.740Z,99377.72
2022-09-27T16:10:56.967Z,99374.88
2022-09-27T16:13:30.362Z,99368.88
2022-09-27T16:16:03.184Z,99368.00
2022-09-27T16:18:31.928Z,99370.13
2022-09-27T16:21:00.859Z,99367.19
2022-09-27T16:23:29.347Z,99372.94
2022-09-27T16:25:59.169Z,99365.63
2022-09-27T16:28:27.752Z,99377.50
2022-09-27T16:30:56.263Z,99379.72
2022-09-27T16:33:24.751Z,99378.53
2022-09-27T16:35:53.098Z,99370.50
2022-09-27T16:38:21.550Z,99362.81
2022-09-27T16:40:49.964Z,99361.41
2022-09-27T16:43:20.078Z,99359.84
2022-09-27T16:45:48.809Z,99361.47
2022-09-27T16:48:17.188Z,99361.09
2022-09-27T16:51:03.242Z,99347.72
2022-09-27T16:53:31.570Z,99351.72
2022-09-27T16:56:00.774Z,99351.56
2022-09-27T16:58:31.637Z,99351.94
2022-09-27T17:01:00.239Z,99350.31
2022-09-27T17:03:29.288Z,99354.97
2022-09-27T17:06:02.416Z,99350.59
2022-09-27T17:08:30.833Z,99342.94
2022-09-27T17:11:00.310Z,99343.03
2022-09-27T17:13:28.698Z,99334.53
2022-09-27T17:15:58.597Z,99331.59
2022-09-27T17:18:26.984Z,99341.66
2022-09-27T17:21:01.608Z,99339.19
2022-09-27T17:23:29.983Z,99333.78
2022-09-27T17:26:07.494Z,99328.44
2022-09-27T17:28:37.540Z,99329.13
2022-09-27T17:31:10.805Z,99322.28
2022-09-27T17:33:44.732Z,99326.41
2022-09-27T17:36:14.636Z,99314.59
2022-09-27T17:38:43.028Z,99316.63
2022-09-27T17:41:13.506Z,99317.38
2022-09-27T17:43:50.271Z,99317.81
2022-09-27T17:46:22.170Z,99311.16
2022-09-27T17:49:08.783Z,99304.97
2022-09-27T17:51:38.749Z,99311.28
2022-09-27T17:54:09.396Z,99306.25
2022-09-27T17:56:38.319Z,99301.06
2022-09-27T17:59:07.851Z,99296.94
2022-09-27T18:01:38.932Z,99297.81
2022-09-27T19:49:08.576Z,99168.06
2022-09-27T19:51:37.457Z,99157.91
2022-09-27T19:54:06.081Z,99159.16
2022-09-27T19:56:35.005Z,99163.94
2022-09-27T19:59:07.040Z,99156.66
2022-09-27T20:01:36.771Z,99148.97
2022-09-27T20:04:05.171Z,99161.69
2022-09-27T20:06:34.946Z,99153.13
2022-09-27T20:09:04.343Z,99158.53
2022-09-27T20:11:34.131Z,99153.94
2022-09-27T20:14:02.533Z,99148.09
2022-09-27T20:16:31.035Z,99158.28
2022-09-27T20:19:00.909Z,99143.56
2022-09-27T20:21:32.829Z,99143.13
2022-09-27T20:24:04.036Z,99144.78
2022-09-27T20:26:34.626Z,99133.72
2022-09-27T20:29:05.385Z,99133.56
2022-09-27T20:31:37.308Z,99130.06
2022-09-27T20:34:07.788Z,99130.63
2022-09-27T20:36:38.064Z,99141.25
2022-09-27T20:39:09.476Z,99141.44
2022-09-27T20:41:39.838Z,99133.34
2022-09-27T20:44:09.700Z,99122.13
2022-09-27T20:46:39.716Z,99124.00
2022-09-27T20:49:09.896Z,99125.50
2022-09-27T20:51:42.972Z,99124.25
2022-09-27T20:54:14.465Z,99122.59
2022-09-27T20:56:44.222Z,99121.38
2022-09-27T20:59:17.015Z,99111.03
2022-09-27T21:01:47.315Z,99113.13
2022-09-27T21:04:17.953Z,99099.97
2022-09-27T21:06:46.589Z,99092.69
2022-09-27T21:09:19.287Z,99088.94
2022-09-27T21:11:48.691Z,99091.06
2022-09-27T21:14:17.273Z,99089.63
2022-09-27T21:16:45.938Z,99082.78
2022-09-27T21:19:14.938Z,99082.56
2022-09-27T21:21:43.519Z,99071.75
2022-09-27T21:24:13.082Z,99077.38
2022-09-27T21:26:42.832Z,99070.94
2022-09-27T21:29:11.837Z,99073.63
2022-09-27T21:31:40.274Z,99070.31
2022-09-27T21:34:08.785Z,99068.31
2022-09-27T21:36:38.752Z,99055.00
2022-09-27T21:39:08.778Z,99044.28
2022-09-27T21:41:39.041Z,99054.72
2022-09-27T21:44:11.586Z,99043.06
2022-09-27T21:46:41.570Z,99056.31
2022-09-27T21:49:11.281Z,99044.44
2022-09-27T21:51:41.250Z,99037.84
2022-09-27T21:54:11.502Z,99035.59
2022-09-27T21:56:41.073Z,99030.41
2022-09-27T21:59:12.930Z,99038.13
2022-09-27T22:01:43.505Z,99037.09
2022-09-27T22:04:12.841Z,99030.03
2022-09-27T22:06:41.656Z,99021.72
2022-09-27T22:09:14.326Z,99022.75
2022-09-27T22:11:44.399Z,99019.00
2022-09-27T22:14:15.162Z,99012.78
2022-09-27T22:16:43.995Z,99022.22
2022-09-27T22:19:13.766Z,99008.50
2022-09-27T22:21:42.631Z,98998.28
2022-09-27T22:24:14.012Z,98998.72
2022-09-27T22:26:46.580Z,98993.78
2022-09-27T22:29:16.707Z,98991.69
2022-09-27T22:31:45.282Z,98988.63
2022-09-27T22:34:18.743Z,98995.91
2022-09-27T22:36:47.749Z,98992.59
2022-09-27T22:39:16.254Z,98980.97
2022-09-27T22:41:44.817Z,98977.88
2022-09-27T22:44:13.348Z,98976.06
2022-09-27T22:46:44.365Z,98980.66
2022-09-27T22:49:12.791Z,98970.09
2022-09-27T22:51:41.182Z,98965.72
2022-09-27T22:54:09.729Z,98969.28
2022-09-27T22:56:38.195Z,98965.72
2022-09-27T22:59:06.789Z,98959.28
2022-09-27T23:01:35.811Z,98956.78
2022-09-27T23:04:05.673Z,98952.31
2022-09-27T23:06:34.226Z,98944.66
2022-09-27T23:09:02.949Z,98940.66
2022-09-27T23:11:31.483Z,98940.97
2022-09-27T23:13:59.818Z,98922.69
2022-09-27T23:16:28.272Z,98920.88
2022-09-27T23:18:58.048Z,98926.13
2022-09-27T23:21:28.884Z,98913.09
2022-09-27T23:23:59.859Z,98911.22
2022-09-27T23:26:29.555Z,98913.09
2022-09-27T23:28:59.777Z,98908.34
2022-09-27T23:31:30.659Z,98894.84
2022-09-27T23:34:00.328Z,98895.31
2022-09-27T23:36:30.140Z,98887.00
2022-09-27T23:39:01.452Z,98882.66
2022-09-27T23:41:30.595Z,98871.09
2022-09-27T23:43:59.330Z,98875.00
2022-09-27T23:46:27.846Z,98868.53
2022-09-27T23:48:59.162Z,98867.34
2022-09-27T23:51:27.724Z,98863.66
2022-09-27T23:53:58.253Z,98858.13
2022-09-27T23:56:27.083Z,98856.63
2022-09-27T23:58:55.428Z,98851.84
